Time;durP1;ratioP1;P1;durP2;ratioP2;P2;SDS_P1;SDS_P2;PMS_P1;PMS_P2;Temp;Humidity;BMP_temperature;BMP_pressure;BME280_temperature;BME280_humidity;BME280_pressure;Samples;Min_cycle;Max_cycle;Signal;HPM_P1;HPM_P2
2022/11/04 00:02:07;;;;;;;11.70;6.40;;;;;;;7.05;100.00;99790.66;4975919;28;20500;-84
2022/11/04 00:04:34;;;;;;;10.50;7.07;;;;;;;6.94;100.00;99797.91;4989934;28;20038;-85
2022/11/04 00:08:22;;;;;;;14.30;7.77;;;;;;;6.97;100.00;99797.81;4973333;28;20081;-84
2022/11/04 00:09:50;;;;;;;12.77;7.43;;;;;;;7.04;100.00;99798.56;4969079;28;20042;-85
2022/11/04 00:12:25;;;;;;;17.27;8.80;;;;;;;7.04;100.00;99806.47;4981976;28;20109;-84
2022/11/04 00:14:53;;;;;;;14.30;8.73;;;;;;;7.01;100.00;99793.41;4975126;28;20042;-84
2022/11/04 00:17:22;;;;;;;10.13;6.90;;;;;;;6.94;100.00;99794.41;4970557;28;20107;-84
2022/11/04 00:33:54;;;;;;;13.37;7.37;;;;;;;6.48;100.00;99780.41;4992718;28;20046;-84
2022/11/04 00:36:22;;;;;;;13.47;7.87;;;;;;;6.46;100.00;99782.16;4986728;28;20043;-84
2022/11/04 00:38:49;;;;;;;14.03;7.73;;;;;;;6.49;100.00;99776.88;4975391;28;20066;-83
2022/11/04 00:41:24;;;;;;;13.50;8.00;;;;;;;6.37;100.00;99774.44;4971024;28;20058;-84
2022/11/04 00:43:55;;;;;;;12.57;7.90;;;;;;;6.33;100.00;99764.06;4976200;28;20066;-85
2022/11/04 00:46:22;;;;;;;10.90;8.03;;;;;;;6.39;100.00;99763.94;4991842;28;20038;-84
2022/11/04 00:48:49;;;;;;;13.93;7.77;;;;;;;6.41;100.00;99755.16;4988377;28;20435;-84
2022/11/04 00:51:20;;;;;;;13.13;6.50;;;;;;;6.35;100.00;99760.50;4976901;28;20043;-83
2022/11/04 00:53:47;;;;;;;13.47;8.07;;;;;;;6.38;100.00;99755.19;4970173;28;20038;-83
2022/11/04 00:56:14;;;;;;;10.53;7.23;;;;;;;6.21;100.00;99758.09;4972580;28;20053;-84
2022/11/04 00:58:40;;;;;;;14.17;7.60;;;;;;;6.20;100.00;99756.38;4982442;28;20414;-83
2022/11/04 01:01:09;;;;;;;14.83;7.93;;;;;;;6.16;100.00;99764.34;4974670;28;20125;-84
2022/11/04 01:03:36;;;;;;;13.57;7.77;;;;;;;6.17;100.00;99760.84;4973045;28;20050;-83
2022/11/04 01:06:03;;;;;;;13.03;7.10;;;;;;;6.14;100.00;99761.75;4955962;28;20230;-83
2022/11/04 01:08:29;;;;;;;16.43;7.97;;;;;;;6.24;100.00;99765.09;4974250;28;20531;-83
2022/11/04 01:11:00;;;;;;;14.67;8.70;;;;;;;6.18;100.00;99755.56;4972676;28;20583;-83
2022/11/04 01:13:27;;;;;;;13.13;7.73;;;;;;;6.05;100.00;99758.41;4974723;28;20455;-83
2022/11/04 01:15:53;;;;;;;13.73;8.43;;;;;;;6.05;100.00;99755.78;4955170;28;20042;-83
2022/11/04 01:18:21;;;;;;;12.73;8.27;;;;;;;6.06;100.00;99753.16;5004118;28;20050;-84
2022/11/04 01:20:47;;;;;;;12.27;7.67;;;;;;;6.10;100.00;99744.31;4965078;28;20077;-83
2022/11/04 01:23:14;;;;;;;13.47;8.40;;;;;;;6.00;100.00;99741.91;4981804;28;20046;-83
2022/11/04 01:25:41;;;;;;;11.90;7.37;;;;;;;5.99;100.00;99735.78;4985746;28;20038;-83
2022/11/04 01:28:07;;;;;;;13.90;7.80;;;;;;;6.02;100.00;99733.09;4968790;28;20070;-83
2022/11/04 01:30:37;;;;;;;15.00;8.67;;;;;;;6.09;100.00;99726.88;4982569;28;20133;-83
2022/11/04 01:33:04;;;;;;;11.70;8.23;;;;;;;6.09;100.00;99724.25;4992116;28;20034;-83
2022/11/04 01:35:31;;;;;;;9.70;6.30;;;;;;;6.01;100.00;99720.03;4959542;28;20046;-83
2022/11/04 01:37:57;;;;;;;15.73;7.63;;;;;;;5.86;100.00;99713.25;4969832;28;20047;-83
2022/11/04 01:40:24;;;;;;;17.77;8.43;;;;;;;6.01;100.00;99707.78;4975178;28;20050;-83
2022/11/04 01:42:51;;;;;;;13.17;8.43;;;;;;;6.09;100.00;99705.03;4992258;28;20035;-83
2022/11/04 01:45:19;;;;;;;13.93;7.63;;;;;;;5.93;100.00;99699.19;4970974;28;20054;-83
2022/11/04 01:47:56;;;;;;;12.30;7.50;;;;;;;5.98;100.00;99702.59;4957414;28;20034;-84
2022/11/04 01:50:26;;;;;;;13.40;8.50;;;;;;;6.04;100.00;99699.84;4990783;28;20053;-83
2022/11/04 01:52:53;;;;;;;15.33;8.90;;;;;;;5.99;100.00;99698.22;4990918;28;20046;-82
2022/11/04 01:55:25;;;;;;;18.83;9.37;;;;;;;6.05;100.00;99700.72;4989991;28;20088;-83
2022/11/04 01:57:55;;;;;;;18.13;9.07;;;;;;;5.95;100.00;99702.63;5003148;28;20128;-82
2022/11/04 02:00:22;;;;;;;16.60;9.93;;;;;;;5.87;100.00;99701.88;4977180;28;20097;-81
2022/11/04 02:03:00;;;;;;;15.40;8.33;;;;;;;5.82;100.00;99691.47;4996327;28;20042;-82
2022/11/04 02:05:29;;;;;;;17.80;9.90;;;;;;;5.80;100.00;99689.75;4978331;28;20034;-81
2022/11/04 02:07:57;;;;;;;13.27;8.60;;;;;;;5.83;100.00;99690.56;4978356;28;20058;-81
2022/11/04 02:10:26;;;;;;;14.87;8.97;;;;;;;5.89;100.00;99684.38;4980155;28;20049;-81
2022/11/04 02:12:54;;;;;;;14.07;8.60;;;;;;;5.83;100.00;99687.09;4979301;28;20054;-82
2022/11/04 02:15:52;;;;;;;16.73;8.63;;;;;;;5.93;100.00;99694.78;4993369;28;20058;-84
2022/11/04 02:19:00;;;;;;;17.33;9.50;;;;;;;6.07;100.00;99678.84;4961636;28;20053;-84
2022/11/04 02:21:38;;;;;;;18.43;9.77;;;;;;;6.14;100.00;99667.34;4940649;28;20054;-84
2022/11/04 02:24:38;;;;;;;15.07;9.50;;;;;;;6.18;100.00;99676.88;5006123;28;20093;-84
2022/11/04 02:27:20;;;;;;;19.20;10.70;;;;;;;6.27;100.00;99672.34;4993555;28;20042;-83
2022/11/04 02:29:58;;;;;;;19.27;11.17;;;;;;;6.35;100.00;99652.94;5009487;28;20519;-84
2022/11/04 02:33:18;;;;;;;15.83;8.87;;;;;;;6.29;100.00;99665.31;4991746;28;20084;-84
2022/11/04 02:36:23;;;;;;;16.03;8.87;;;;;;;6.31;100.00;99674.03;4981576;28;20484;-84
2022/11/04 02:38:53;;;;;;;15.40;10.35;;;;;;;6.28;100.00;99668.84;4985182;28;20042;-84
2022/11/04 02:41:42;;;;;;;16.30;10.07;;;;;;;6.35;100.00;99663.44;5009099;28;20045;-84
2022/11/04 02:44:19;;;;;;;15.13;9.60;;;;;;;6.45;100.00;99685.97;4998831;28;20042;-84
2022/11/04 02:46:53;;;;;;;20.30;10.60;;;;;;;6.43;100.00;99679.03;4981758;28;20034;-85
2022/11/04 02:49:42;;;;;;;15.68;10.23;;;;;;;6.44;100.00;99680.75;5009750;28;20042;-84
2022/11/04 02:52:11;;;;;;;16.90;9.03;;;;;;;6.49;100.00;99685.03;4991859;28;20062;-84
2022/11/04 02:54:44;;;;;;;18.37;11.17;;;;;;;6.53;100.00;99677.09;4976968;28;20069;-84
2022/11/04 02:57:15;;;;;;;18.80;9.33;;;;;;;6.45;100.00;99683.34;4986875;28;20493;-85
2022/11/04 03:00:03;;;;;;;16.33;10.00;;;;;;;6.44;100.00;99676.38;4980830;28;20053;-84
2022/11/04 03:02:34;;;;;;;15.03;8.53;;;;;;;6.43;100.00;99686.91;4995644;28;20500;-84
2022/11/04 03:05:02;;;;;;;17.80;9.93;;;;;;;6.43;100.00;99693.03;4953354;28;20077;-84
2022/11/04 03:07:33;;;;;;;15.67;9.57;;;;;;;6.47;100.00;99691.19;4975020;28;20046;-84
2022/11/04 03:10:04;;;;;;;16.13;9.30;;;;;;;6.39;100.00;99691.38;5006041;28;20045;-84
2022/11/04 03:12:36;;;;;;;13.97;8.50;;;;;;;6.40;100.00;99679.97;4979199;28;20050;-83
2022/11/04 03:15:06;;;;;;;15.73;8.77;;;;;;;6.26;100.00;99678.50;4993903;28;20073;-84
2022/11/04 03:17:42;;;;;;;15.57;9.60;;;;;;;6.18;100.00;99673.38;4959556;28;20104;-84
2022/11/04 03:20:14;;;;;;;14.27;9.40;;;;;;;6.27;100.00;99670.59;4996102;28;20045;-84
2022/11/04 03:22:41;;;;;;;14.27;9.00;;;;;;;6.17;100.00;99662.03;4971544;28;20094;-84
2022/11/04 03:25:08;;;;;;;12.87;8.43;;;;;;;6.06;100.00;99663.13;4976756;28;20042;-85
2022/11/04 03:27:49;;;;;;;17.00;9.87;;;;;;;6.04;100.00;99664.91;4976389;28;20109;-84
2022/11/04 03:30:17;;;;;;;15.10;9.90;;;;;;;5.98;100.00;99668.50;4978224;28;20080;-84
2022/11/04 03:32:57;;;;;;;13.37;8.73;;;;;;;6.01;100.00;99665.81;4978277;28;20042;-83
2022/11/04 03:35:26;;;;;;;13.83;9.40;;;;;;;5.96;100.00;99678.13;4959127;28;20133;-83
2022/11/04 03:37:52;;;;;;;16.60;9.83;;;;;;;5.92;100.00;99672.09;4975250;28;20438;-83
2022/11/04 03:40:19;;;;;;;16.83;8.90;;;;;;;5.96;100.00;99666.78;4976565;28;20042;-83
2022/11/04 03:42:51;;;;;;;14.33;8.13;;;;;;;5.93;100.00;99655.47;4974196;28;20670;-84
2022/11/04 03:45:18;;;;;;;16.40;10.13;;;;;;;5.89;100.00;99647.69;4991553;28;20042;-83
2022/11/04 03:47:45;;;;;;;17.13;8.73;;;;;;;5.77;100.00;99653.13;5014364;28;20042;-83
2022/11/04 03:50:35;;;;;;;15.27;8.43;;;;;;;5.95;100.00;99657.19;4976696;28;20048;-84
2022/11/04 03:53:02;;;;;;;15.00;9.33;;;;;;;5.88;100.00;99669.50;4981215;28;20496;-84
2022/11/04 03:55:56;;;;;;;19.27;9.57;;;;;;;5.94;100.00;99674.69;5009313;28;20097;-84
2022/11/04 03:58:49;;;;;;;16.25;8.88;;;;;;;5.84;100.00;99673.09;4992396;28;20042;-84
2022/11/04 04:01:41;;;;;;;19.07;11.27;;;;;;;5.91;100.00;99657.28;4984879;28;20057;-85
2022/11/04 04:04:31;;;;;;;16.03;9.20;;;;;;;6.07;100.00;99657.84;4993812;28;20038;-84
2022/11/04 04:07:05;;;;;;;15.50;8.60;;;;;;;6.02;100.00;99657.06;4988123;28;20723;-84
2022/11/04 04:09:43;;;;;;;;;;;;;;;5.99;100.00;99667.63;4975021;28;20057;-84
2022/11/04 04:12:21;;;;;;;15.53;10.20;;;;;;;5.98;100.00;99668.50;4990990;28;20284;-84
2022/11/04 04:14:53;;;;;;;17.57;9.33;;;;;;;5.88;100.00;99677.38;4976320;28;20068;-84
2022/11/04 04:17:35;;;;;;;15.97;10.07;;;;;;;6.02;100.00;99659.69;4974964;28;20038;-84
2022/11/04 04:20:14;;;;;;;18.67;10.60;;;;;;;6.04;100.00;99668.38;4991671;28;20046;-84
2022/11/04 04:22:49;;;;;;;22.10;10.03;;;;;;;6.13;100.00;99659.47;4955535;28;20046;-83
2022/11/04 04:28:12;;;;;;;15.97;10.93;;;;;;;6.23;100.00;99663.69;4966625;28;20046;-84
2022/11/04 04:30:39;;;;;;;19.57;10.77;;;;;;;6.20;100.00;99661.97;4972963;28;20043;-85
2022/11/04 04:33:08;;;;;;;18.63;10.00;;;;;;;6.20;100.00;99659.34;4959929;28;20096;-83
2022/11/04 04:35:41;;;;;;;20.37;10.87;;;;;;;6.19;100.00;99660.25;4992409;28;20124;-84
2022/11/04 04:46:36;;;;;;;19.13;10.90;;;;;;;6.32;100.00;99668.75;4986392;28;20480;-83
2022/11/04 04:49:07;;;;;;;19.20;11.53;;;;;;;6.35;100.00;99671.31;4975994;28;20391;-85
2022/11/04 04:51:38;;;;;;;16.90;10.53;;;;;;;6.38;100.00;99671.25;4992164;28;20082;-85
2022/11/04 04:54:05;;;;;;;18.67;12.00;;;;;;;6.38;100.00;99675.63;4975904;28;20038;-85
2022/11/04 04:56:31;;;;;;;16.17;10.83;;;;;;;6.49;100.00;99663.19;4971935;28;20093;-85
2022/11/04 04:58:58;;;;;;;18.17;11.17;;;;;;;6.53;100.00;99661.34;4991352;28;20046;-84
2022/11/04 05:01:25;;;;;;;17.60;11.23;;;;;;;6.55;100.00;99656.94;4988430;28;20031;-84
2022/11/04 05:03:52;;;;;;;20.57;11.77;;;;;;;6.56;100.00;99649.06;4992576;28;20039;-84
2022/11/04 05:06:19;;;;;;;19.33;11.00;;;;;;;6.63;100.00;99655.00;4987839;28;20038;-84
2022/11/04 05:08:45;;;;;;;19.10;11.13;;;;;;;6.61;100.00;99656.81;4970108;28;20042;-84
2022/11/04 05:11:12;;;;;;;16.33;10.53;;;;;;;6.62;100.00;99659.41;4996141;28;20049;-83
2022/11/04 05:13:39;;;;;;;18.57;11.27;;;;;;;6.75;100.00;99647.75;4959158;28;20042;-84
2022/11/04 05:16:10;;;;;;;17.40;11.20;;;;;;;6.71;100.00;99666.22;4958952;28;20477;-84
2022/11/04 05:18:37;;;;;;;20.13;12.40;;;;;;;6.85;100.00;99652.81;4986767;28;20049;-84
2022/11/04 05:21:09;;;;;;;18.50;10.70;;;;;;;6.74;100.00;99659.16;4967715;28;20081;-85
2022/11/04 05:23:36;;;;;;;17.73;11.33;;;;;;;6.63;100.00;99662.88;4975742;28;20392;-84
2022/11/04 05:26:03;;;;;;;20.27;11.40;;;;;;;6.85;100.00;99669.44;4973766;28;20046;-85
2022/11/04 05:28:30;;;;;;;19.83;11.60;;;;;;;6.75;100.00;99671.38;4946098;28;20460;-84
2022/11/04 05:30:57;;;;;;;20.57;13.27;;;;;;;6.84;100.00;99675.59;4992797;28;20046;-85
2022/11/04 05:33:23;;;;;;;17.50;11.43;;;;;;;6.70;100.00;99672.38;4959865;28;20519;-85
2022/11/04 05:35:51;;;;;;;18.80;11.63;;;;;;;6.82;100.00;99677.38;4979908;28;20419;-84
2022/11/04 05:38:19;;;;;;;20.07;11.23;;;;;;;6.76;100.00;99683.63;4963119;28;20100;-84
2022/11/04 05:40:46;;;;;;;22.13;11.90;;;;;;;6.73;100.00;99674.97;5003770;28;20042;-83
2022/11/04 05:43:13;;;;;;;18.93;11.50;;;;;;;6.86;100.00;99686.91;5011710;28;20038;-81
2022/11/04 05:45:39;;;;;;;16.80;10.37;;;;;;;6.76;100.00;99695.88;5004422;28;20069;-83
2022/11/04 05:48:06;;;;;;;20.73;11.13;;;;;;;6.71;100.00;99695.97;4989640;28;20042;-82
2022/11/04 05:50:33;;;;;;;18.30;10.47;;;;;;;6.71;100.00;99689.84;4986119;28;20073;-81
2022/11/04 05:53:00;;;;;;;18.67;10.80;;;;;;;6.70;100.00;99694.22;4986707;28;20065;-82
2022/11/04 05:55:27;;;;;;;19.17;10.30;;;;;;;6.74;100.00;99697.69;4995445;28;20039;-82
2022/11/04 05:57:54;;;;;;;17.90;11.47;;;;;;;6.78;100.00;99702.81;4986650;28;20046;-80
2022/11/04 06:00:21;;;;;;;20.00;10.90;;;;;;;6.73;100.00;99695.94;5002223;28;20058;-83
2022/11/04 06:02:47;;;;;;;15.77;10.27;;;;;;;6.70;100.00;99698.63;4999251;28;20791;-82
2022/11/04 06:05:14;;;;;;;19.83;11.33;;;;;;;6.73;100.00;99712.56;4961510;28;20540;-82
2022/11/04 06:07:41;;;;;;;16.03;10.27;;;;;;;6.80;100.00;99704.53;4982533;28;20030;-83
2022/11/04 06:10:08;;;;;;;17.47;10.50;;;;;;;6.75;100.00;99708.16;4987465;28;20046;-83
2022/11/04 06:12:35;;;;;;;18.33;10.83;;;;;;;6.75;100.00;99713.38;4983328;28;20034;-84
2022/11/04 06:15:01;;;;;;;17.00;10.70;;;;;;;6.76;100.00;99730.00;4991024;28;20043;-82
2022/11/04 06:17:28;;;;;;;17.40;9.93;;;;;;;6.77;100.00;99731.72;4983216;28;20054;-82
2022/11/04 06:19:55;;;;;;;19.07;11.00;;;;;;;6.78;100.00;99738.72;5001656;28;20050;-81
2022/11/04 06:22:22;;;;;;;15.80;10.37;;;;;;;6.85;100.00;99749.97;4998573;28;20035;-83
2022/11/04 06:24:49;;;;;;;18.00;12.30;;;;;;;6.92;100.00;99741.94;4975220;28;20112;-81
2022/11/04 06:27:16;;;;;;;21.77;12.63;;;;;;;7.03;100.00;99734.69;4960890;28;20045;-80
2022/11/04 06:29:43;;;;;;;20.03;11.43;;;;;;;6.95;100.00;99730.50;4989932;28;20038;-82
2022/11/04 06:32:14;;;;;;;17.53;11.40;;;;;;;6.93;100.00;99740.16;4972515;28;20073;-81
2022/11/04 06:34:41;;;;;;;17.80;11.10;;;;;;;6.93;100.00;99730.53;4987857;28;20042;-81
2022/11/04 06:37:08;;;;;;;20.00;12.37;;;;;;;6.98;100.00;99733.06;4982518;28;20095;-83
2022/11/04 06:39:35;;;;;;;21.50;12.43;;;;;;;7.01;100.00;99736.50;4967886;28;20043;-80
2022/11/04 06:42:03;;;;;;;21.63;13.20;;;;;;;7.01;100.00;99733.84;4976790;28;20100;-81
2022/11/04 06:44:30;;;;;;;18.30;11.90;;;;;;;7.11;100.00;99731.03;4987155;28;20038;-81
2022/11/04 06:46:57;;;;;;;16.73;11.77;;;;;;;7.06;100.00;99739.00;4970408;28;20092;-81
2022/11/04 06:49:24;;;;;;;20.03;11.50;;;;;;;7.04;100.00;99739.03;4974435;28;20035;-85
2022/11/04 06:51:51;;;;;;;16.67;11.30;;;;;;;7.07;100.00;99748.63;4990602;28;20038;-80
2022/11/04 06:54:17;;;;;;;16.80;11.63;;;;;;;7.10;100.00;99750.31;4986990;28;20062;-80
2022/11/04 06:56:44;;;;;;;18.80;12.27;;;;;;;7.08;100.00;99771.38;4979788;28;20046;-86
2022/11/04 06:59:15;;;;;;;17.33;11.80;;;;;;;7.09;100.00;99765.22;4975182;28;20035;-80
2022/11/04 07:01:41;;;;;;;19.40;12.00;;;;;;;7.12;100.00;99774.78;4976006;28;20049;-82
2022/11/04 07:04:09;;;;;;;15.07;10.77;;;;;;;7.11;100.00;99778.31;4973429;28;20046;-82
2022/11/04 07:06:35;;;;;;;16.90;11.80;;;;;;;7.13;100.00;99766.00;4992813;28;20518;-82
2022/11/04 07:09:10;;;;;;;19.70;11.80;;;;;;;7.17;100.00;99765.94;4989921;28;20041;-83
2022/11/04 07:11:36;;;;;;;22.07;11.87;;;;;;;7.18;100.00;99770.28;4961905;28;20066;-83
2022/11/04 07:14:03;;;;;;;19.50;11.67;;;;;;;7.19;100.00;99779.03;4971384;28;20496;-82
2022/11/04 07:16:30;;;;;;;22.03;11.87;;;;;;;7.22;100.00;99778.94;4971477;28;20099;-80
2022/11/04 07:18:56;;;;;;;16.93;10.43;;;;;;;7.23;100.00;99773.69;4990276;28;20034;-84
2022/11/04 07:21:23;;;;;;;23.83;12.43;;;;;;;7.28;100.00;99771.81;4959051;28;20093;-83
2022/11/04 07:23:50;;;;;;;20.77;11.87;;;;;;;7.30;100.00;99766.50;4981305;28;20059;-82
2022/11/04 07:26:17;;;;;;;21.97;13.47;;;;;;;7.37;100.00;99772.50;4987097;28;20042;-82
2022/11/04 07:28:43;;;;;;;16.30;11.73;;;;;;;7.30;100.00;99774.41;4971365;28;20065;-83
2022/11/04 07:31:11;;;;;;;18.20;11.73;;;;;;;7.29;100.00;99784.03;4949277;28;20112;-82
2022/11/04 07:33:38;;;;;;;16.97;10.77;;;;;;;7.29;100.00;99775.31;4973293;28;20061;-83
2022/11/04 07:36:06;;;;;;;17.93;11.50;;;;;;;7.29;100.00;99777.94;4992290;28;20078;-81
2022/11/04 07:38:33;;;;;;;16.43;10.73;;;;;;;7.31;100.00;99776.13;4991024;28;20439;-81
2022/11/04 07:41:01;;;;;;;18.53;11.63;;;;;;;7.29;100.00;99770.91;4984305;28;20046;-83
2022/11/04 07:43:28;;;;;;;16.43;10.67;;;;;;;7.33;100.00;99769.97;4993229;28;20466;-83
2022/11/04 07:46:03;;;;;;;17.97;10.50;;;;;;;7.33;100.00;99772.59;4992671;28;20038;-80
2022/11/04 07:48:29;;;;;;;17.67;11.90;;;;;;;7.39;100.00;99773.34;4976389;28;20046;-83
2022/11/04 07:50:58;;;;;;;22.80;15.23;;;;;;;7.44;100.00;99785.50;4957882;28;20034;-81
2022/11/04 07:53:29;;;;;;;16.40;11.70;;;;;;;7.50;100.00;99793.25;4985199;28;20423;-81
2022/11/04 07:55:56;;;;;;;18.60;12.43;;;;;;;7.58;100.00;99790.47;4974075;28;20049;-80
2022/11/04 07:58:24;;;;;;;19.90;11.30;;;;;;;7.61;100.00;99796.50;4973943;28;20034;-81
2022/11/04 08:00:57;;;;;;;18.43;11.37;;;;;;;7.67;100.00;99798.13;4987090;28;20030;-82
2022/11/04 08:03:23;;;;;;;20.40;11.90;;;;;;;7.72;100.00;99803.28;4989509;28;20105;-80
2022/11/04 08:05:55;;;;;;;18.50;11.60;;;;;;;7.75;100.00;99793.56;4977088;28;20038;-84
2022/11/04 08:08:22;;;;;;;19.80;11.83;;;;;;;7.79;100.00;99792.59;4979020;28;20049;-86
2022/11/04 08:11:01;;;;;;;18.20;11.87;;;;;;;7.87;100.00;99788.00;4994567;28;20048;-81
2022/11/04 08:13:32;;;;;;;23.23;13.27;;;;;;;8.09;100.00;99790.16;5056287;23;20047;-80
2022/11/04 08:16:08;;;;;;;20.30;12.40;;;;;;;8.16;100.00;99781.22;4987035;28;20712;-80
2022/11/04 08:18:35;;;;;;;22.90;12.37;;;;;;;8.31;100.00;99782.56;4977560;28;20038;-80
2022/11/04 08:21:03;;;;;;;18.60;11.93;;;;;;;8.31;100.00;99767.63;4992630;28;20030;-80
2022/11/04 08:23:30;;;;;;;20.00;12.17;;;;;;;8.42;100.00;99759.53;4982339;28;20480;-80
2022/11/04 08:25:57;;;;;;;21.07;13.27;;;;;;;8.50;100.00;99764.59;4975928;28;20042;-81
2022/11/04 08:28:24;;;;;;;22.60;12.83;;;;;;;8.52;100.00;99754.88;4974537;28;20535;-80
2022/11/04 08:30:57;;;;;;;17.60;11.77;;;;;;;8.55;100.00;99754.78;4960651;28;20047;-81
2022/11/04 08:33:26;;;;;;;17.40;11.33;;;;;;;8.56;100.00;99753.88;5006528;28;20501;-82
2022/11/04 08:35:54;;;;;;;17.33;11.00;;;;;;;8.56;100.00;99762.63;4972892;28;20042;-81
2022/11/04 08:38:21;;;;;;;17.50;11.83;;;;;;;8.59;100.00;99745.91;4995216;28;20057;-80
2022/11/04 08:40:47;;;;;;;17.87;11.70;;;;;;;8.64;100.00;99765.06;4993887;28;20034;-81
2022/11/04 08:43:14;;;;;;;19.55;13.70;;;;;;;8.89;100.00;99757.34;4963536;28;20043;-82
2022/11/04 08:45:43;;;;;;;20.55;13.75;;;;;;;8.87;100.00;99767.09;4991291;28;20042;-82
2022/11/04 08:48:09;;;;;;;21.05;12.18;;;;;;;8.87;100.00;99770.56;4999137;28;20527;-81
2022/11/04 08:50:37;;;;;;;20.25;13.18;;;;;;;8.90;100.00;99762.56;4953087;28;20077;-80
2022/11/04 08:53:04;;;;;;;18.23;12.38;;;;;;;8.96;100.00;99766.81;4976935;28;20042;-81
2022/11/04 08:55:32;;;;;;;20.07;12.67;;;;;;;9.00;100.00;99766.72;4978857;28;20050;-81
2022/11/04 08:57:59;;;;;;;18.40;12.00;;;;;;;9.05;100.00;99760.44;4993072;28;20042;-81
2022/11/04 09:00:26;;;;;;;17.08;11.18;;;;;;;9.00;100.00;99764.06;4976270;28;20471;-81
2022/11/04 09:02:54;;;;;;;33.88;12.85;;;;;;;9.02;100.00;99764.03;4974256;28;20046;-81
2022/11/04 09:05:21;;;;;;;17.67;12.00;;;;;;;9.09;100.00;99762.09;4989085;28;20057;-81
2022/11/04 09:07:48;;;;;;;16.80;11.43;;;;;;;9.05;100.00;99771.81;4984753;28;20128;-81
2022/11/04 09:10:14;;;;;;;17.60;12.00;;;;;;;9.08;100.00;99770.88;4992749;28;20112;-81
2022/11/04 09:12:42;;;;;;;20.75;12.85;;;;;;;9.10;100.00;99780.47;4991024;28;20042;-81
2022/11/04 09:15:09;;;;;;;19.70;12.63;;;;;;;9.32;100.00;99771.03;4993487;28;20042;-80
2022/11/04 09:17:36;;;;;;;18.67;12.15;;;;;;;9.20;100.00;99767.91;4976203;28;20060;-80
2022/11/04 09:20:03;;;;;;;18.52;11.90;;;;;;;9.27;100.00;99772.09;4973178;28;20393;-82
2022/11/04 09:22:30;;;;;;;18.15;12.23;;;;;;;9.16;100.00;99779.41;4992524;28;20065;-81
2022/11/04 09:24:57;;;;;;;18.95;11.65;;;;;;;9.11;100.00;99790.09;4992856;28;20491;-80
2022/11/04 09:27:24;;;;;;;21.77;13.73;;;;;;;9.16;100.00;99795.22;4972695;28;20046;-80
2022/11/04 09:29:50;;;;;;;23.35;14.90;;;;;;;9.22;100.00;99801.19;4958631;28;20034;-79
2022/11/04 09:32:17;;;;;;;20.17;14.07;;;;;;;9.14;100.00;99797.91;4991477;28;20085;-80
2022/11/04 09:34:44;;;;;;;24.05;15.68;;;;;;;9.17;100.00;99795.22;4995016;28;20038;-80
2022/11/04 09:37:10;;;;;;;22.77;14.57;;;;;;;9.13;100.00;99795.31;4976061;28;20065;-80
2022/11/04 09:39:37;;;;;;;22.83;15.77;;;;;;;9.09;100.00;99798.97;4990306;28;20039;-80
2022/11/04 09:42:16;;;;;;;19.80;13.40;;;;;;;9.11;100.00;99792.75;4954079;28;20048;-80
2022/11/04 09:44:42;;;;;;;19.33;13.13;;;;;;;9.15;100.00;99785.59;4975505;28;20075;-80
2022/11/04 09:47:31;;;;;;;23.10;15.10;;;;;;;9.25;100.00;99771.28;4983886;28;20068;-80
2022/11/04 09:49:59;;;;;;;18.58;12.65;;;;;;;9.32;100.00;99771.03;4991999;28;20042;-80
2022/11/04 09:52:32;;;;;;;21.13;13.35;;;;;;;9.31;100.00;99782.47;4986567;28;20043;-79
2022/11/04 09:55:06;;;;;;;20.02;13.73;;;;;;;9.28;100.00;99768.53;4973733;28;20042;-80
2022/11/04 09:57:33;;;;;;;;;;;;;;;9.26;100.00;99763.31;4988672;28;20043;-80
2022/11/04 09:59:59;;;;;;;21.83;14.52;;;;;;;9.34;100.00;99760.47;4979468;28;19961;-81
2022/11/04 10:02:48;;;;;;;22.55;14.70;;;;;;;9.41;100.00;99753.19;4974781;28;20748;-80
2022/11/04 10:05:27;;;;;;;21.73;14.55;;;;;;;9.48;100.00;99747.69;4990356;28;20066;-80
2022/11/04 10:08:09;;;;;;;21.52;13.38;;;;;;;9.46;100.00;99733.72;4985741;28;20112;-80
2022/11/04 10:10:38;;;;;;;18.52;12.00;;;;;;;9.51;100.00;99728.31;4992663;28;20042;-80
2022/11/04 10:13:35;;;;;;;20.02;12.70;;;;;;;9.58;100.00;99732.44;4976385;28;20050;-80
2022/11/04 10:16:13;;;;;;;18.02;12.63;;;;;;;9.65;100.00;99734.00;4964939;28;20042;-80
2022/11/04 10:19:00;;;;;;;17.73;11.85;;;;;;;9.71;100.00;99744.34;5006917;28;20564;-80
2022/11/04 10:21:38;;;;;;;20.27;13.02;;;;;;;9.87;100.00;99760.56;4977630;28;20080;-80
2022/11/04 10:24:13;;;;;;;21.73;13.15;;;;;;;9.89;100.00;99758.72;4987495;28;20043;-80
2022/11/04 10:26:59;;;;;;;20.10;12.98;;;;;;;9.90;100.00;99771.00;5000240;28;20459;-81
2022/11/04 10:29:32;;;;;;;19.80;12.35;;;;;;;10.01;100.00;99776.81;4975305;28;20102;-80
2022/11/04 10:32:02;;;;;;;16.52;10.98;;;;;;;10.07;100.00;99783.66;4974877;28;20077;-80
2022/11/04 10:34:56;;;;;;;16.77;11.60;;;;;;;10.06;100.00;99798.63;4973155;28;20209;-80
2022/11/04 10:37:24;;;;;;;16.08;11.27;;;;;;;10.09;100.00;99808.25;4961808;28;20466;-80
2022/11/04 10:39:58;;;;;;;16.73;11.57;;;;;;;10.13;100.00;99821.28;4992790;28;20069;-80
2022/11/04 10:42:24;;;;;;;15.85;11.43;;;;;;;10.15;100.00;99830.00;4995285;28;20042;-80
2022/11/04 10:44:51;;;;;;;15.88;10.95;;;;;;;10.21;100.00;99831.59;4976783;28;20042;-80
2022/11/04 10:47:30;;;;;;;18.42;13.10;;;;;;;10.19;100.00;99822.88;4978588;28;20049;-81
2022/11/04 10:50:20;;;;;;;17.95;12.05;;;;;;;10.33;100.00;99830.34;4992018;28;20034;-80
2022/11/04 10:53:19;;;;;;;16.80;11.38;;;;;;;10.32;100.00;99824.22;4993111;28;20073;-80
2022/11/04 10:55:53;;;;;;;13.65;10.40;;;;;;;10.49;100.00;99814.88;4970086;28;20048;-82
2022/11/04 10:58:33;;;;;;;14.20;9.85;;;;;;;10.64;100.00;99819.66;4993288;28;20605;-82
2022/11/04 11:01:27;;;;;;;14.75;9.52;;;;;;;10.66;100.00;99823.09;4961333;28;20090;-81
2022/11/04 11:03:54;;;;;;;13.63;9.32;;;;;;;10.58;100.00;99823.34;4985749;28;20093;-82
2022/11/04 11:06:27;;;;;;;14.15;9.80;;;;;;;10.61;100.00;99825.03;4989351;28;20038;-81
2022/11/04 11:08:56;;;;;;;14.23;10.23;;;;;;;10.74;100.00;99831.63;4973439;28;20096;-81
2022/11/04 11:11:46;;;;;;;13.15;9.35;;;;;;;10.61;100.00;99831.19;4988315;28;20041;-81
2022/11/04 11:14:27;;;;;;;13.07;9.02;;;;;;;10.65;100.00;99830.16;4995162;28;20043;-81
2022/11/04 11:16:55;;;;;;;12.38;7.78;;;;;;;10.63;100.00;99832.00;4988856;28;20655;-83
2022/11/04 11:19:25;;;;;;;11.55;8.35;;;;;;;10.64;100.00;99833.72;4972471;28;20049;-83
2022/11/04 11:21:57;;;;;;;10.25;8.13;;;;;;;10.63;100.00;99821.44;4958589;28;20042;-82
2022/11/04 11:24:25;;;;;;;10.50;7.95;;;;;;;10.61;100.00;99831.19;4990066;28;20038;-83
2022/11/04 11:26:57;;;;;;;11.13;8.77;;;;;;;10.77;100.00;99839.47;4974847;28;20053;-83
2022/11/04 11:29:28;;;;;;;9.95;7.05;;;;;;;10.65;100.00;99846.00;4973921;28;20049;-83
2022/11/04 11:31:59;;;;;;;9.90;7.15;;;;;;;10.59;100.00;99835.63;4997145;28;20481;-85
2022/11/04 11:34:36;;;;;;;11.45;7.97;;;;;;;10.61;100.00;99831.19;4974789;28;20060;-85
2022/11/04 11:37:04;;;;;;;11.63;7.65;;;;;;;10.59;100.00;99840.06;4984180;28;20062;-84
2022/11/04 11:39:32;;;;;;;11.45;7.05;;;;;;;10.53;100.00;99850.84;4960334;28;20487;-83
2022/11/04 11:42:07;;;;;;;9.63;6.75;;;;;;;10.47;100.00;99856.31;4972368;28;20459;-83
2022/11/04 11:44:46;;;;;;;9.05;6.45;;;;;;;10.44;100.00;99862.56;4992025;28;20088;-82
2022/11/04 11:47:29;;;;;;;10.23;7.50;;;;;;;10.47;100.00;99862.47;4964883;28;20038;-84
2022/11/04 11:50:24;;;;;;;10.45;8.10;;;;;;;10.45;100.00;99860.81;4977169;28;20101;-81
2022/11/04 11:52:51;;;;;;;11.13;7.47;;;;;;;10.43;100.00;99858.22;4973909;28;20042;-85
2022/11/04 11:55:22;;;;;;;9.52;6.88;;;;;;;10.41;100.00;99854.75;4975417;28;20074;-84
2022/11/04 11:58:06;;;;;;;11.00;7.78;;;;;;;10.44;100.00;99865.22;4985551;28;20109;-82
2022/11/04 12:01:00;;;;;;;10.48;7.30;;;;;;;10.39;100.00;99864.50;4967143;28;20080;-81
2022/11/04 12:03:39;;;;;;;8.68;6.68;;;;;;;10.39;100.00;99864.50;4959441;28;20042;-81
2022/11/04 12:06:38;;;;;;;11.40;7.25;;;;;;;10.40;100.00;99872.34;4973693;28;20047;-82